Time;durP1;ratioP1;P1;durP2;ratioP2;P2;SDS_P1;SDS_P2;PMS_P1;PMS_P2;Temp;Humidity;BMP_temperature;BMP_pressure;BME280_temperature;BME280_humidity;BME280_pressure;Samples;Min_cycle;Max_cycle;Signal;HPM_P1;HPM_P2
2023/09/30 07:07:58;;;;;;;11.73;8.27;;;;;;;;;;5177438;22;20198;-86
2023/09/30 07:10:24;;;;;;;10.02;8.90;;;;;;;;;;5057537;28;20109;-86
2023/09/30 07:12:50;;;;;;;12.15;9.52;;;;;;;;;;5030490;28;20028;-85
2023/09/30 07:15:16;;;;;;;9.75;7.97;;;;;;;;;;5057801;28;20024;-85
2023/09/30 07:17:42;;;;;;;11.07;8.65;;;;;;;;;;5070059;28;20025;-85
2023/09/30 07:20:07;;;;;;;9.38;8.40;;;;;;;;;;5055591;28;20031;-85
2023/09/30 07:22:37;;;;;;;10.20;9.18;;;;;;;;;;5037672;28;20029;-83
2023/09/30 07:25:04;;;;;;;11.57;9.43;;;;;;;;;;5055312;28;20041;-86
2023/09/30 07:27:30;;;;;;;9.25;8.35;;;;;;;;;;5055430;28;20032;-84
2023/09/30 07:29:55;;;;;;;11.45;9.05;;;;;;;;;;5055461;28;20375;-82
2023/09/30 07:32:23;;;;;;;12.45;8.98;;;;;;;;;;5055166;28;20069;-79
2023/09/30 07:34:49;;;;;;;9.23;8.30;;;;;;;;;;5055422;28;20078;-80
2023/09/30 07:37:14;;;;;;;11.15;9.20;;;;;;;;;;5055279;28;20475;-81
2023/09/30 07:39:40;;;;;;;9.45;8.55;;;;;;;;;;5055894;28;20029;-81
2023/09/30 07:42:09;;;;;;;8.88;8.05;;;;;;;;;;5055404;28;20120;-83
2023/09/30 07:44:37;;;;;;;10.80;8.40;;;;;;;;;;5055282;28;20056;-83
2023/09/30 07:47:12;;;;;;;10.85;8.80;;;;;;;;;;5037294;28;20029;-82
2023/09/30 07:49:38;;;;;;;9.25;8.27;;;;;;;;;;5055458;28;20033;-84
2023/09/30 07:52:04;;;;;;;9.57;8.20;;;;;;;;;;5054998;28;20029;-83
2023/09/30 07:54:29;;;;;;;10.20;9.30;;;;;;;;;;5055151;28;20167;-87
2023/09/30 07:56:55;;;;;;;9.00;8.18;;;;;;;;;;5055271;28;20097;-85
2023/09/30 07:59:21;;;;;;;9.90;8.88;;;;;;;;;;5037071;28;20040;-84
2023/09/30 08:01:48;;;;;;;11.75;9.18;;;;;;;;;;5054853;28;20104;-85
2023/09/30 09:52:12;;;;;;;7.82;7.13;;;;;;;;;;5082375;23;20052;-84
2023/09/30 09:54:39;;;;;;;8.82;7.93;;;;;;;;;;5035349;28;20037;-84
2023/09/30 09:57:08;;;;;;;10.10;8.27;;;;;;;;;;5053471;28;20071;-84
2023/09/30 09:59:34;;;;;;;7.93;7.13;;;;;;;;;;5053173;28;20052;-84
2023/09/30 10:02:00;;;;;;;8.52;7.63;;;;;;;;;;5053113;28;20483;-84
2023/09/30 10:04:26;;;;;;;12.48;7.80;;;;;;;;;;5053458;28;20104;-84
2023/09/30 10:06:55;;;;;;;9.07;8.13;;;;;;;;;;5053377;28;20029;-88
2023/09/30 10:09:21;;;;;;;9.25;7.57;;;;;;;;;;5035113;28;20374;-87
2023/09/30 10:11:47;;;;;;;9.07;8.15;;;;;;;;;;5053224;28;20036;-85
2023/09/30 10:14:38;;;;;;;10.98;7.55;;;;;;;;;;5053078;28;20029;-84
2023/09/30 10:17:03;;;;;;;8.35;7.50;;;;;;;;;;5053054;28;20021;-84
2023/09/30 10:19:30;;;;;;;8.52;7.22;;;;;;;;;;5053147;28;20021;-82
2023/09/30 10:22:24;;;;;;;11.70;8.20;;;;;;;;;;5034968;28;20086;-83
2023/09/30 10:24:52;;;;;;;8.80;7.80;;;;;;;;;;5053027;28;20127;-82
2023/09/30 10:27:24;;;;;;;12.45;9.30;;;;;;;;;;5053287;28;20349;-79
2023/09/30 10:30:02;;;;;;;8.27;7.45;;;;;;;;;;5035008;28;20025;-81
2023/09/30 10:32:53;;;;;;;8.73;7.90;;;;;;;;;;5052925;28;20475;-82
2023/09/30 10:35:27;;;;;;;7.88;7.18;;;;;;;;;;5053083;28;20115;-81
2023/09/30 10:38:27;;;;;;;10.82;7.30;;;;;;;;;;5052980;28;20025;-81
2023/09/30 10:40:56;;;;;;;8.40;7.07;;;;;;;;;;5052846;28;20029;-81
2023/09/30 10:43:41;;;;;;;8.07;7.38;;;;;;;;;;5052790;28;20021;-80
2023/09/30 10:46:28;;;;;;;9.55;7.07;;;;;;;;;;5052735;28;20025;-80
2023/09/30 10:48:55;;;;;;;7.45;6.75;;;;;;;;;;5052764;28;20021;-81
2023/09/30 10:51:21;;;;;;;9.80;7.50;;;;;;;;;;5053029;28;20027;-81
2023/09/30 10:54:00;;;;;;;11.45;7.55;;;;;;;;;;5056033;28;20053;-80
2023/09/30 10:56:32;;;;;;;9.27;7.45;;;;;;;;;;5056533;28;20017;-81
2023/09/30 10:58:59;;;;;;;8.80;6.95;;;;;;;;;;5056160;28;20041;-81
2023/09/30 11:01:25;;;;;;;9.65;6.60;;;;;;;;;;5056422;28;20091;-78
2023/09/30 11:03:58;;;;;;;9.52;6.80;;;;;;;;;;5056603;28;20040;-78
2023/09/30 11:06:24;;;;;;;7.80;6.78;;;;;;;;;;5056574;28;20053;-85
2023/09/30 11:08:59;;;;;;;8.05;7.25;;;;;;;;;;5056629;28;20498;-88
2023/09/30 11:11:39;;;;;;;7.72;6.53;;;;;;;;;;5056396;28;20048;-86
2023/09/30 11:14:28;;;;;;;9.73;7.38;;;;;;;;;;5056736;28;20025;-92
2023/09/30 11:16:55;;;;;;;7.82;7.07;;;;;;;;;;5056266;28;20025;-85
2023/09/30 11:19:21;;;;;;;8.63;7.30;;;;;;;;;;5056347;28;20029;-85
2023/09/30 11:21:52;;;;;;;7.95;7.13;;;;;;;;;;5056287;28;20514;-85
2023/09/30 11:24:18;;;;;;;8.40;7.65;;;;;;;;;;5056554;28;20029;-86
2023/09/30 11:26:45;;;;;;;8.77;7.80;;;;;;;;;;5056603;28;20174;-85
2023/09/30 11:29:16;;;;;;;10.23;8.35;;;;;;;;;;5056456;28;20032;-86
2023/09/30 11:31:46;;;;;;;8.95;7.80;;;;;;;;;;5056327;28;20037;-86
2023/09/30 11:34:12;;;;;;;11.07;8.60;;;;;;;;;;5055853;28;20054;-87
2023/09/30 11:36:42;;;;;;;10.70;7.78;;;;;;;;;;5037908;28;20379;-86
2023/09/30 11:39:09;;;;;;;9.02;8.07;;;;;;;;;;5055538;28;20021;-86
2023/09/30 11:41:38;;;;;;;10.48;8.38;;;;;;;;;;5055431;28;20071;-86
2023/09/30 11:44:04;;;;;;;;;;;;;;;;;;5056828;28;20025;-86
2023/09/30 11:46:33;;;;;;;10.75;8.02;;;;;;;;;;5060772;28;19999;-87
2023/09/30 11:49:04;;;;;;;9.98;8.10;;;;;;;;;;5037284;28;20124;-86
2023/09/30 11:51:43;;;;;;;9.48;8.55;;;;;;;;;;5055697;28;20025;-86
2023/09/30 11:54:10;;;;;;;10.50;7.93;;;;;;;;;;5055396;28;20372;-86
2023/09/30 11:56:36;;;;;;;8.73;7.68;;;;;;;;;;5055382;28;20116;-87
2023/09/30 11:59:02;;;;;;;8.77;7.75;;;;;;;;;;5055149;28;20107;-86
2023/09/30 12:01:30;;;;;;;9.35;8.35;;;;;;;;;;5039596;28;20486;-87
2023/09/30 12:03:56;;;;;;;9.30;8.05;;;;;;;;;;5054223;28;20036;-86
2023/09/30 12:06:22;;;;;;;8.02;6.93;;;;;;;;;;5055317;28;20083;-86
2023/09/30 12:08:48;;;;;;;10.43;7.55;;;;;;;;;;5055049;28;20471;-86
2023/09/30 12:11:15;;;;;;;10.13;8.60;;;;;;;;;;5056302;28;20036;-86
2023/09/30 12:13:41;;;;;;;8.30;7.47;;;;;;;;;;5056916;28;20477;-87
2023/09/30 12:16:07;;;;;;;10.85;8.27;;;;;;;;;;5057187;28;20040;-87
2023/09/30 12:18:32;;;;;;;9.77;7.93;;;;;;;;;;5055013;28;20104;-87
2023/09/30 12:20:58;;;;;;;9.23;7.93;;;;;;;;;;5054965;28;20087;-85
2023/09/30 12:23:24;;;;;;;11.32;7.80;;;;;;;;;;5054937;28;20418;-86
2023/09/30 12:25:50;;;;;;;9.55;8.05;;;;;;;;;;5055157;28;20025;-85
2023/09/30 12:28:17;;;;;;;12.63;8.55;;;;;;;;;;5055305;28;20112;-87
2023/09/30 12:30:43;;;;;;;9.57;7.68;;;;;;;;;;5054710;28;20032;-85
2023/09/30 12:33:10;;;;;;;8.98;7.40;;;;;;;;;;5054497;28;20029;-84
2023/09/30 12:35:36;;;;;;;8.02;7.22;;;;;;;;;;5054684;28;20075;-83
2023/09/30 12:38:02;;;;;;;8.48;7.05;;;;;;;;;;5054436;28;20021;-83
2023/09/30 12:40:28;;;;;;;8.57;7.70;;;;;;;;;;5054635;28;20035;-86
2023/09/30 12:42:53;;;;;;;9.18;8.20;;;;;;;;;;5054535;28;20111;-86
2023/09/30 12:45:19;;;;;;;9.77;7.22;;;;;;;;;;5054806;28;20083;-86
2023/09/30 12:47:47;;;;;;;8.57;7.70;;;;;;;;;;5036576;28;20033;-84
2023/09/30 12:50:12;;;;;;;8.10;7.30;;;;;;;;;;5054315;28;20040;-84
2023/09/30 12:52:38;;;;;;;9.95;7.75;;;;;;;;;;5053734;28;20037;-86
2023/09/30 12:55:05;;;;;;;10.70;7.88;;;;;;;;;;5054241;28;20075;-85
2023/09/30 12:57:31;;;;;;;10.27;7.70;;;;;;;;;;5054214;28;20033;-86
2023/09/30 12:59:57;;;;;;;9.68;7.47;;;;;;;;;;5036054;28;20029;-86
2023/09/30 13:02:23;;;;;;;8.57;7.60;;;;;;;;;;5053962;28;20032;-85
2023/09/30 13:04:49;;;;;;;8.10;7.30;;;;;;;;;;5036142;28;20108;-84
2023/09/30 13:07:15;;;;;;;7.80;7.10;;;;;;;;;;5053825;28;20112;-85
2023/09/30 13:09:41;;;;;;;9.18;7.15;;;;;;;;;;5053860;28;20029;-85
2023/09/30 13:12:07;;;;;;;8.50;7.60;;;;;;;;;;5035824;28;20024;-86
2023/09/30 13:14:34;;;;;;;7.75;6.72;;;;;;;;;;5053700;28;20064;-87
2023/09/30 13:16:59;;;;;;;7.82;7.13;;;;;;;;;;5053915;28;20460;-86
2023/09/30 13:19:25;;;;;;;8.27;6.97;;;;;;;;;;5053443;28;20108;-83
2023/09/30 13:21:52;;;;;;;7.72;7.00;;;;;;;;;;5053754;28;20108;-88
2023/09/30 13:24:21;;;;;;;8.57;7.47;;;;;;;;;;5053556;28;20086;-84
2023/09/30 13:26:48;;;;;;;7.97;7.20;;;;;;;;;;5035750;28;20484;-87
2023/09/30 13:29:16;;;;;;;8.57;7.18;;;;;;;;;;5035416;28;20075;-86
2023/09/30 13:31:43;;;;;;;8.05;7.35;;;;;;;;;;5053457;28;20081;-88
2023/09/30 13:34:08;;;;;;;7.93;7.22;;;;;;;;;;5053912;28;20108;-90
2023/09/30 13:36:34;;;;;;;7.85;7.07;;;;;;;;;;5035970;28;20045;-88
2023/09/30 13:39:00;;;;;;;8.52;7.00;;;;;;;;;;5053563;28;20033;-85
2023/09/30 13:41:27;;;;;;;8.32;7.53;;;;;;;;;;5053782;28;20158;-88
2023/09/30 13:43:52;;;;;;;7.55;6.85;;;;;;;;;;5053632;28;20029;-87
2023/09/30 13:46:18;;;;;;;8.50;7.78;;;;;;;;;;5053428;28;20477;-85
2023/09/30 13:48:43;;;;;;;7.63;7.00;;;;;;;;;;5053603;28;20537;-88
2023/09/30 13:51:10;;;;;;;8.65;7.85;;;;;;;;;;5053531;28;20032;-85
2023/09/30 13:53:36;;;;;;;8.32;7.53;;;;;;;;;;5053169;28;20132;-85
2023/09/30 13:56:03;;;;;;;9.43;7.57;;;;;;;;;;5053419;28;20120;-83
2023/09/30 13:58:29;;;;;;;8.60;7.80;;;;;;;;;;5053450;28;20463;-88
2023/09/30 14:00:56;;;;;;;11.05;8.20;;;;;;;;;;5035405;28;20087;-85
2023/09/30 14:03:24;;;;;;;8.20;7.40;;;;;;;;;;5035422;28;20055;-86
2023/09/30 14:05:50;;;;;;;9.80;8.00;;;;;;;;;;5053138;28;20495;-87
2023/09/30 14:08:16;;;;;;;9.15;7.63;;;;;;;;;;5053165;28;20052;-87
2023/09/30 14:10:44;;;;;;;7.50;6.80;;;;;;;;;;5053474;28;20456;-87
2023/09/30 14:13:10;;;;;;;8.50;7.57;;;;;;;;;;5052968;28;20032;-86
2023/09/30 14:15:36;;;;;;;8.82;7.90;;;;;;;;;;5053409;28;20029;-88
2023/09/30 14:18:02;;;;;;;9.10;8.20;;;;;;;;;;5053266;28;20029;-89
2023/09/30 14:20:27;;;;;;;8.70;7.55;;;;;;;;;;5053001;28;20033;-86
2023/09/30 14:22:55;;;;;;;8.63;7.72;;;;;;;;;;5035260;28;20047;-86
2023/09/30 14:25:21;;;;;;;8.85;7.93;;;;;;;;;;5053196;28;20383;-86
2023/09/30 14:27:47;;;;;;;8.35;7.13;;;;;;;;;;5055513;28;20017;-86
2023/09/30 14:30:13;;;;;;;8.32;7.53;;;;;;;;;;5056749;28;20099;-87
2023/09/30 14:32:39;;;;;;;10.93;7.90;;;;;;;;;;5056526;28;20021;-87
2023/09/30 14:35:06;;;;;;;8.75;7.90;;;;;;;;;;5056760;28;20021;-91
2023/09/30 14:37:31;;;;;;;8.32;7.50;;;;;;;;;;5038949;28;20036;-87
2023/09/30 14:39:57;;;;;;;8.70;7.32;;;;;;;;;;5056560;28;20392;-87
2023/09/30 14:42:22;;;;;;;8.85;7.35;;;;;;;;;;5056759;28;20075;-86
2023/09/30 14:44:48;;;;;;;7.53;6.82;;;;;;;;;;5056770;28;20021;-90
2023/09/30 14:47:14;;;;;;;7.75;6.95;;;;;;;;;;5038897;28;20021;-89
2023/09/30 14:49:40;;;;;;;8.02;7.22;;;;;;;;;;5038669;28;20112;-88
2023/09/30 14:52:06;;;;;;;9.70;7.65;;;;;;;;;;5056304;28;20108;-88
2023/09/30 14:54:31;;;;;;;8.10;7.40;;;;;;;;;;5056439;28;20025;-88
2023/09/30 14:56:57;;;;;;;9.35;7.13;;;;;;;;;;5056302;28;20036;-89
2023/09/30 14:59:23;;;;;;;8.02;7.22;;;;;;;;;;5056301;28;20105;-89
2023/09/30 15:01:49;;;;;;;7.80;6.78;;;;;;;;;;5056623;28;20032;-89
2023/09/30 15:04:15;;;;;;;8.23;7.38;;;;;;;;;;5056495;28;20036;-90
2023/09/30 15:06:41;;;;;;;7.80;7.10;;;;;;;;;;5038274;28;20479;-84
2023/09/30 15:09:09;;;;;;;8.90;6.95;;;;;;;;;;5055958;28;20044;-84
2023/09/30 15:11:35;;;;;;;7.35;6.65;;;;;;;;;;5038118;28;20024;-84
2023/09/30 15:14:01;;;;;;;8.63;7.60;;;;;;;;;;5055900;28;20039;-84
2023/09/30 15:16:26;;;;;;;7.93;7.03;;;;;;;;;;5055886;28;20372;-84
2023/09/30 15:18:52;;;;;;;8.70;6.80;;;;;;;;;;5056053;28;20021;-84
2023/09/30 17:17:23;;;;;;;5.47;4.68;;;;;;;;;;5022331;28;20136;-85
2023/09/30 17:19:48;;;;;;;5.10;4.47;;;;;;;;;;5014233;28;20109;-85
2023/09/30 17:22:14;;;;;;;6.03;5.10;;;;;;;;;;5014030;28;20379;-85
2023/09/30 17:24:41;;;;;;;7.40;4.75;;;;;;;;;;5028068;28;20482;-85
2023/09/30 17:27:09;;;;;;;5.35;4.57;;;;;;;;;;5033620;28;20032;-89
2023/09/30 17:29:34;;;;;;;5.30;4.80;;;;;;;;;;5031719;28;20430;-83
2023/09/30 17:32:03;;;;;;;5.47;4.97;;;;;;;;;;5033594;28;20056;-82
2023/09/30 17:34:29;;;;;;;5.22;4.72;;;;;;;;;;5033589;28;20040;-83
2023/09/30 17:36:54;;;;;;;6.57;4.70;;;;;;;;;;5033469;28;20029;-84
2023/09/30 17:39:20;;;;;;;5.07;4.57;;;;;;;;;;5033641;28;20088;-84
2023/09/30 17:41:46;;;;;;;4.55;4.15;;;;;;;;;;5033261;28;20033;-84
2023/09/30 17:44:13;;;;;;;7.53;5.30;;;;;;;;;;5031936;28;20072;-84
2023/09/30 17:46:38;;;;;;;6.05;5.30;;;;;;;;;;5033575;28;20095;-85
2023/09/30 17:49:04;;;;;;;6.57;5.35;;;;;;;;;;5033571;28;20460;-83
2023/09/30 17:51:30;;;;;;;6.82;5.45;;;;;;;;;;5031689;28;20502;-80
2023/09/30 17:53:57;;;;;;;7.18;5.38;;;;;;;;;;5031675;28;20029;-84
2023/09/30 17:56:25;;;;;;;6.20;5.10;;;;;;;;;;5033383;28;20022;-84
2023/09/30 17:58:52;;;;;;;8.07;5.40;;;;;;;;;;5033543;28;20110;-82
2023/09/30 18:01:22;;;;;;;6.43;5.25;;;;;;;;;;5033109;28;20029;-83
2023/09/30 18:03:49;;;;;;;6.00;5.38;;;;;;;;;;5036132;28;20033;-84
2023/09/30 18:06:15;;;;;;;4.90;4.38;;;;;;;;;;5035787;28;20029;-83
2023/09/30 18:08:42;;;;;;;5.80;5.22;;;;;;;;;;5037231;28;20029;-83
2023/09/30 18:11:11;;;;;;;5.70;5.20;;;;;;;;;;5037405;28;20506;-87
2023/09/30 18:13:41;;;;;;;8.07;6.70;;;;;;;;;;5036948;28;20422;-86
2023/09/30 18:16:07;;;;;;;18.50;14.82;;;;;;;;;;5037247;28;20033;-88
2023/09/30 18:18:35;;;;;;;9.18;7.18;;;;;;;;;;5036880;28;20072;-86
2023/09/30 18:21:00;;;;;;;6.95;6.22;;;;;;;;;;5036861;28;20083;-82
2023/09/30 18:23:27;;;;;;;6.45;5.65;;;;;;;;;;5037045;28;20029;-85
2023/09/30 18:25:53;;;;;;;7.50;5.00;;;;;;;;;;5037108;28;20026;-83
2023/09/30 18:28:18;;;;;;;5.70;4.88;;;;;;;;;;5036799;28;20443;-85
2023/09/30 18:30:44;;;;;;;5.63;4.88;;;;;;;;;;5036812;28;20078;-83
2023/09/30 18:33:14;;;;;;;6.65;5.28;;;;;;;;;;5035408;28;20033;-85
2023/09/30 18:35:42;;;;;;;7.70;5.95;;;;;;;;;;5036575;28;20033;-87
2023/09/30 18:38:07;;;;;;;6.20;5.25;;;;;;;;;;5036725;28;20033;-87
2023/09/30 18:40:34;;;;;;;5.68;5.18;;;;;;;;;;5036911;28;20529;-86
2023/09/30 18:43:03;;;;;;;8.32;5.30;;;;;;;;;;5036963;28;20048;-84
2023/09/30 18:45:29;;;;;;;5.20;4.70;;;;;;;;;;5036593;28;20037;-89
2023/09/30 18:47:55;;;;;;;5.07;4.57;;;;;;;;;;5036980;28;20092;-88
2023/09/30 18:50:21;;;;;;;6.47;5.18;;;;;;;;;;5035136;28;20033;-88
2023/09/30 18:52:47;;;;;;;8.05;5.30;;;;;;;;;;5035182;28;20609;-85
2023/09/30 18:55:13;;;;;;;5.68;4.95;;;;;;;;;;5036517;28;20025;-84
2023/09/30 18:57:38;;;;;;;5.43;4.93;;;;;;;;;;5036340;28;20472;-86
2023/09/30 19:00:05;;;;;;;5.70;5.03;;;;;;;;;;5036614;28;20053;-88
2023/09/30 19:02:31;;;;;;;8.20;5.40;;;;;;;;;;5036408;28;20029;-87
2023/09/30 19:04:58;;;;;;;5.50;4.93;;;;;;;;;;5036185;28;20029;-86
2023/09/30 19:07:24;;;;;;;8.35;5.30;;;;;;;;;;5036302;28;20105;-84
2023/09/30 19:09:49;;;;;;;4.88;4.40;;;;;;;;;;5035064;28;20531;-85
2023/09/30 19:12:15;;;;;;;7.03;5.57;;;;;;;;;;5036027;28;20021;-88
2023/09/30 19:14:40;;;;;;;5.55;4.90;;;;;;;;;;5036060;28;20025;-89
2023/09/30 19:17:06;;;;;;;6.63;5.45;;;;;;;;;;5034487;28;20068;-88
2023/09/30 19:19:32;;;;;;;6.80;4.95;;;;;;;;;;5036018;28;20026;-87
2023/09/30 19:21:58;;;;;;;6.45;5.13;;;;;;;;;;5018514;28;20559;-92
2023/09/30 19:24:24;;;;;;;6.47;5.22;;;;;;;;;;5034747;28;20104;-89
2023/09/30 19:26:49;;;;;;;5.95;5.35;;;;;;;;;;5035893;28;20026;-90
2023/09/30 19:29:15;;;;;;;6.10;5.50;;;;;;;;;;5034548;28;20078;-89
2023/09/30 19:31:40;;;;;;;6.65;5.28;;;;;;;;;;5035893;28;20101;-88
2023/09/30 19:34:06;;;;;;;6.75;5.78;;;;;;;;;;5034613;28;20076;-87
2023/09/30 19:36:31;;;;;;;7.63;5.38;;;;;;;;;;5034545;28;20148;-88
2023/09/30 19:38:57;;;;;;;5.85;5.30;;;;;;;;;;5035726;28;20053;-89
2023/09/30 19:41:22;;;;;;;5.68;5.10;;;;;;;;;;5035676;28;20026;-86
2023/09/30 19:43:48;;;;;;;6.97;5.35;;;;;;;;;;5035574;28;20116;-85
2023/09/30 19:46:14;;;;;;;5.43;4.88;;;;;;;;;;5035711;28;20036;-88
2023/09/30 19:48:39;;;;;;;5.97;5.40;;;;;;;;;;5034396;28;20084;-85
2023/09/30 19:51:05;;;;;;;6.22;4.72;;;;;;;;;;5035411;28;20484;-85
2023/09/30 19:53:31;;;;;;;5.45;4.78;;;;;;;;;;5035393;28;20025;-86
2023/09/30 19:56:07;;;;;;;5.55;5.03;;;;;;;;;;5035423;28;20100;-86
2023/09/30 19:58:33;;;;;;;8.50;5.75;;;;;;;;;;5035411;28;20029;-86
2023/09/30 20:01:05;;;;;;;5.72;5.13;;;;;;;;;;5035377;28;20029;-86
2023/09/30 20:03:30;;;;;;;7.80;5.45;;;;;;;;;;5035416;28;20028;-86
2023/09/30 20:05:55;;;;;;;5.35;4.82;;;;;;;;;;5033916;28;20447;-87
2023/09/30 20:08:21;;;;;;;5.85;4.72;;;;;;;;;;5034975;28;20546;-86
2023/09/30 20:10:46;;;;;;;6.30;5.20;;;;;;;;;;5031793;28;20095;-86
2023/09/30 20:13:12;;;;;;;5.68;5.00;;;;;;;;;;5015090;28;20049;-86
2023/09/30 20:15:37;;;;;;;7.90;4.90;;;;;;;;;;5015032;28;20065;-86
2023/09/30 20:18:03;;;;;;;6.25;5.28;;;;;;;;;;5013624;28;20046;-86
2023/09/30 20:20:29;;;;;;;6.13;5.03;;;;;;;;;;5015101;28;20022;-86
2023/09/30 20:22:55;;;;;;;6.90;5.43;;;;;;;;;;5014902;28;20040;-87
2023/09/30 20:25:21;;;;;;;5.68;4.90;;;;;;;;;;5014269;28;20503;-87
2023/09/30 20:27:46;;;;;;;5.35;4.43;;;;;;;;;;5015093;28;20033;-87
2023/09/30 20:30:12;;;;;;;6.30;5.05;;;;;;;;;;5013597;28;20028;-86
2023/09/30 20:32:38;;;;;;;6.50;5.15;;;;;;;;;;5015065;28;20061;-86
2023/09/30 20:35:05;;;;;;;5.55;4.85;;;;;;;;;;5014619;28;20033;-86
2023/09/30 20:37:31;;;;;;;5.95;5.30;;;;;;;;;;4997192;28;20096;-86
2023/09/30 20:39:57;;;;;;;5.95;5.22;;;;;;;;;;5013531;28;20038;-86
2023/09/30 20:42:23;;;;;;;6.03;5.43;;;;;;;;;;5014637;28;20415;-87
2023/09/30 20:44:50;;;;;;;5.30;4.80;;;;;;;;;;5014385;28;20026;-86
2023/09/30 20:47:15;;;;;;;5.80;4.70;;;;;;;;;;5014853;28;20022;-87
2023/09/30 20:49:41;;;;;;;6.28;4.97;;;;;;;;;;5014583;28;20033;-86
2023/09/30 20:52:06;;;;;;;6.38;5.47;;;;;;;;;;5014518;28;20037;-86
2023/09/30 20:54:33;;;;;;;5.20;4.70;;;;;;;;;;5013020;28;20030;-86
2023/09/30 20:56:59;;;;;;;6.32;4.50;;;;;;;;;;5014501;28;20452;-87
2023/09/30 20:59:25;;;;;;;4.88;4.40;;;;;;;;;;5014318;28;20084;-87
2023/09/30 21:01:51;;;;;;;5.28;4.78;;;;;;;;;;5014577;28;20036;-85
2023/09/30 21:04:17;;;;;;;5.10;4.60;;;;;;;;;;5014368;28;20415;-86
2023/09/30 21:06:44;;;;;;;5.68;4.50;;;;;;;;;;5014454;28;20022;-86
2023/09/30 21:09:13;;;;;;;7.18;5.88;;;;;;;;;;5014209;28;20021;-85
2023/09/30 21:11:40;;;;;;;7.65;6.50;;;;;;;;;;5014117;28;20026;-86
2023/09/30 21:14:06;;;;;;;6.18;5.57;;;;;;;;;;5012633;28;20029;-86
2023/09/30 21:16:32;;;;;;;6.63;5.30;;;;;;;;;;5012722;28;20447;-86
2023/09/30 21:18:58;;;;;;;5.20;4.70;;;;;;;;;;5014132;28;20487;-86
2023/09/30 21:21:23;;;;;;;5.95;4.47;;;;;;;;;;5014105;28;20026;-87
2023/09/30 21:23:49;;;;;;;4.93;4.50;;;;;;;;;;5014069;28;20530;-87
2023/09/30 21:26:15;;;;;;;5.60;5.05;;;;;;;;;;5012796;28;20041;-87
2023/09/30 21:28:45;;;;;;;6.05;4.68;;;;;;;;;;5013999;28;20388;-89
2023/09/30 21:31:18;;;;;;;5.70;5.10;;;;;;;;;;5014012;28;20022;-87
2023/09/30 21:33:44;;;;;;;5.55;4.70;;;;;;;;;;5013964;28;20026;-86
2023/09/30 21:36:10;;;;;;;6.32;5.20;;;;;;;;;;5012866;28;20109;-88
2023/09/30 21:38:36;;;;;;;6.95;4.95;;;;;;;;;;5013806;28;20508;-88
2023/09/30 21:41:02;;;;;;;6.45;5.40;;;;;;;;;;5014532;28;20427;-90
2023/09/30 21:43:28;;;;;;;6.18;4.70;;;;;;;;;;5013891;28;20105;-88
2023/09/30 21:45:53;;;;;;;4.93;4.53;;;;;;;;;;5013992;28;20121;-89
2023/09/30 21:48:19;;;;;;;6.38;5.82;;;;;;;;;;5012538;28;20072;-84
2023/09/30 21:50:44;;;;;;;6.00;5.40;;;;;;;;;;5014368;28;20052;-90
2023/09/30 21:53:10;;;;;;;7.95;5.78;;;;;;;;;;5013767;28;20034;-87
2023/09/30 21:55:35;;;;;;;6.20;5.45;;;;;;;;;;5014648;28;20109;-87
2023/09/30 21:58:01;;;;;;;5.88;5.28;;;;;;;;;;5013737;28;20105;-87
2023/09/30 22:08:12;;;;;;;5.18;4.38;;;;;;;;;;6081422;23;20027;-86
2023/09/30 22:10:39;;;;;;;7.35;4.28;;;;;;;;;;5052576;28;20057;-85
2023/09/30 22:13:05;;;;;;;6.50;5.25;;;;;;;;;;5051902;28;20065;-84
2023/09/30 22:15:32;;;;;;;6.80;5.60;;;;;;;;;;5053229;28;20021;-84
2023/09/30 22:17:58;;;;;;;6.47;5.35;;;;;;;;;;5053134;28;20068;-87
2023/09/30 22:20:23;;;;;;;5.72;5.13;;;;;;;;;;5053367;28;20068;-84
2023/09/30 22:22:50;;;;;;;6.10;5.40;;;;;;;;;;5053123;28;20029;-85
2023/09/30 22:25:16;;;;;;;5.85;5.22;;;;;;;;;;5053050;28;20029;-85
2023/09/30 22:27:43;;;;;;;6.47;5.40;;;;;;;;;;5052988;28;20083;-85
2023/09/30 22:30:09;;;;;;;6.40;5.20;;;;;;;;;;5053139;28;20379;-85
2023/09/30 22:32:34;;;;;;;7.35;5.78;;;;;;;;;;5053010;28;20025;-85
2023/09/30 22:35:00;;;;;;;6.10;5.50;;;;;;;;;;5053008;28;20036;-85
2023/09/30 22:37:25;;;;;;;6.75;6.05;;;;;;;;;;5051856;28;20052;-84
2023/09/30 22:39:51;;;;;;;5.70;5.20;;;;;;;;;;5051750;28;20112;-85
2023/09/30 22:42:17;;;;;;;7.22;5.85;;;;;;;;;;5051608;28;20029;-86
2023/09/30 22:44:43;;;;;;;7.43;6.68;;;;;;;;;;5053036;28;20126;-87
2023/09/30 22:47:09;;;;;;;9.43;6.82;;;;;;;;;;5053027;28;20404;-85
2023/09/30 22:49:34;;;;;;;7.32;6.53;;;;;;;;;;5056436;28;20091;-88
2023/09/30 22:52:00;;;;;;;8.05;6.90;;;;;;;;;;5056396;28;20021;-87
2023/09/30 22:54:27;;;;;;;8.60;6.50;;;;;;;;;;5055173;28;20029;-84
2023/09/30 22:56:54;;;;;;;7.85;6.30;;;;;;;;;;5056744;28;20479;-84
2023/09/30 22:59:20;;;;;;;7.80;6.35;;;;;;;;;;5056534;28;20035;-84
2023/09/30 23:01:46;;;;;;;6.95;6.28;;;;;;;;;;5056492;28;20025;-85
2023/09/30 23:04:12;;;;;;;9.77;7.40;;;;;;;;;;5056264;28;20025;-86
2023/09/30 23:06:39;;;;;;;7.50;6.80;;;;;;;;;;5056198;28;20025;-85
2023/09/30 23:09:10;;;;;;;8.75;7.65;;;;;;;;;;5056056;28;20505;-85
2023/09/30 23:11:37;;;;;;;7.72;6.93;;;;;;;;;;5056267;28;20464;-85
2023/09/30 23:14:04;;;;;;;8.50;6.55;;;;;;;;;;5056289;28;20044;-85
2023/09/30 23:16:29;;;;;;;7.95;6.82;;;;;;;;;;5056025;28;20029;-87
2023/09/30 23:19:04;;;;;;;7.28;6.55;;;;;;;;;;5055974;28;20032;-84
2023/09/30 23:21:29;;;;;;;9.60;6.88;;;;;;;;;;5054507;28;20479;-84
2023/09/30 23:23:56;;;;;;;7.47;6.78;;;;;;;;;;5056059;28;20025;-84
2023/09/30 23:26:21;;;;;;;7.25;6.55;;;;;;;;;;5055822;28;20025;-84
2023/09/30 23:28:48;;;;;;;7.93;6.25;;;;;;;;;;5056029;28;20043;-87
2023/09/30 23:31:14;;;;;;;7.32;6.25;;;;;;;;;;5056063;28;20062;-85
2023/09/30 23:33:40;;;;;;;7.05;6.30;;;;;;;;;;5055733;28;20029;-84
2023/09/30 23:36:10;;;;;;;6.32;5.72;;;;;;;;;;5055919;28;20017;-86
2023/09/30 23:38:37;;;;;;;6.65;5.95;;;;;;;;;;5055774;28;20021;-85
2023/09/30 23:41:05;;;;;;;6.85;6.15;;;;;;;;;;5055771;28;20031;-85
2023/09/30 23:43:31;;;;;;;8.52;6.53;;;;;;;;;;5055595;28;20116;-84
2023/09/30 23:45:57;;;;;;;7.57;6.32;;;;;;;;;;5055454;28;20060;-85
2023/09/30 23:48:24;;;;;;;9.30;7.00;;;;;;;;;;5055602;28;20053;-84
2023/09/30 23:50:55;;;;;;;7.70;6.65;;;;;;;;;;5055661;28;20079;-84
2023/09/30 23:53:22;;;;;;;7.85;6.65;;;;;;;;;;5055381;28;20376;-85
2023/09/30 23:55:48;;;;;;;8.60;6.78;;;;;;;;;;5055595;28;20025;-85
2023/09/30 23:58:15;;;;;;;7.25;6.55;;;;;;;;;;5055556;28;20395;-86
